Time;durP1;ratioP1;P1;durP2;ratioP2;P2;SDS_P1;SDS_P2;PMS_P1;PMS_P2;Temp;Humidity;BMP_temperature;BMP_pressure;BME280_temperature;BME280_humidity;BME280_pressure;Samples;Min_cycle;Max_cycle;Signal;HPM_P1;HPM_P2
2022/11/27 00:00:01;;;;;;;0.77;0.77;;;;;;;6.73;89.29;100542.16;5074131;28;20253;-64
2022/11/27 00:02:28;;;;;;;0.87;0.87;;;;;;;6.63;89.25;100520.03;5074122;28;20215;-64
2022/11/27 00:04:56;;;;;;;1.00;1.00;;;;;;;6.72;89.32;100540.47;5074468;28;20683;-64
2022/11/27 00:07:23;;;;;;;1.07;1.07;;;;;;;6.57;89.38;100520.88;5074153;28;20200;-64
2022/11/27 00:09:50;;;;;;;0.70;0.70;;;;;;;6.58;89.80;100527.69;5073896;28;20196;-64
2022/11/27 00:12:16;;;;;;;0.60;0.60;;;;;;;6.66;90.56;100537.88;5074442;28;20676;-64
2022/11/27 00:14:43;;;;;;;0.50;0.50;;;;;;;6.63;91.56;100550.63;5074179;28;20544;-64
2022/11/27 00:17:10;;;;;;;0.63;0.63;;;;;;;6.63;91.40;100545.53;5074159;28;20196;-64
2022/11/27 00:19:37;;;;;;;0.60;0.60;;;;;;;6.62;91.27;100549.78;5074001;28;20576;-64
2022/11/27 00:22:05;;;;;;;0.87;0.87;;;;;;;6.65;91.97;100556.59;5074017;28;20195;-64
2022/11/27 00:24:32;;;;;;;0.60;0.60;;;;;;;6.64;91.85;100553.19;5074032;28;20684;-63
2022/11/27 00:26:59;;;;;;;0.80;0.80;;;;;;;6.65;91.51;100551.50;5073651;28;20211;-64
2022/11/27 00:29:28;;;;;;;1.17;1.07;;;;;;;6.64;92.23;100562.53;5074022;28;20215;-64
2022/11/27 00:31:55;;;;;;;0.70;0.70;;;;;;;6.63;91.60;100551.47;5073882;28;20200;-64
2022/11/27 00:34:22;;;;;;;0.57;0.57;;;;;;;6.66;91.78;100556.56;5074006;28;20282;-64
2022/11/27 00:36:49;;;;;;;0.70;0.70;;;;;;;6.66;91.49;100561.69;5073462;28;20193;-64
2022/11/27 00:39:17;;;;;;;0.53;0.53;;;;;;;6.62;91.59;100556.59;5074049;28;20737;-64
2022/11/27 00:41:43;;;;;;;0.80;0.80;;;;;;;6.64;91.18;100562.53;5073020;28;20223;-64
2022/11/27 00:44:11;;;;;;;0.87;0.87;;;;;;;6.63;91.12;100565.91;5073100;28;20224;-65
2022/11/27 00:46:39;;;;;;;0.80;0.80;;;;;;;6.66;91.41;100561.69;5073348;28;20211;-64
2022/11/27 00:49:08;;;;;;;0.77;0.77;;;;;;;6.62;90.82;100556.59;5071748;28;20572;-64
2022/11/27 00:51:35;;;;;;;0.67;0.67;;;;;;;6.66;91.12;100566.78;5071822;28;20227;-64
2022/11/27 00:54:01;;;;;;;0.60;0.60;;;;;;;6.64;90.77;100557.44;5073139;28;20196;-64
2022/11/27 00:56:32;;;;;;;0.70;0.70;;;;;;;6.56;89.97;100559.09;5073345;28;20192;-64
2022/11/27 00:58:59;;;;;;;0.90;0.90;;;;;;;6.57;89.75;100565.88;5072185;28;20699;-64
2022/11/27 01:01:28;;;;;;;1.20;1.20;;;;;;;6.55;90.28;100567.59;5073193;28;20683;-64
2022/11/27 01:03:56;;;;;;;0.60;0.60;;;;;;;6.53;89.89;100569.25;5072896;28;20220;-65
2022/11/27 01:06:23;;;;;;;0.60;0.60;;;;;;;6.52;90.37;100572.66;5073383;28;20258;-64
2022/11/27 01:08:50;;;;;;;0.80;0.80;;;;;;;6.49;90.21;100554.81;5073156;28;20192;-64
2022/11/27 01:11:19;;;;;;;0.63;0.63;;;;;;;6.55;89.28;100559.94;5072810;28;20192;-64
2022/11/27 01:13:47;;;;;;;0.70;0.70;;;;;;;6.49;88.66;100553.13;5073348;28;20188;-64
2022/11/27 01:16:16;;;;;;;0.60;0.60;;;;;;;6.54;88.53;100560.78;5072994;28;20707;-64
2022/11/27 01:18:44;;;;;;;0.60;0.60;;;;;;;6.47;88.62;100538.66;5072921;28;20204;-64
2022/11/27 01:21:12;;;;;;;0.83;0.83;;;;;;;6.57;88.38;100550.59;5072951;28;20218;-64
2022/11/27 01:23:39;;;;;;;0.60;0.60;;;;;;;6.48;88.14;100537.81;5072172;28;20216;-65
2022/11/27 01:26:08;;;;;;;0.63;0.63;;;;;;;6.53;88.29;100543.78;5073210;28;20196;-65
2022/11/27 01:28:35;;;;;;;1.30;0.80;;;;;;;6.50;88.47;100554.81;5072736;28;20200;-64
2022/11/27 01:31:06;;;;;;;0.50;0.50;;;;;;;6.53;88.50;100551.41;5072793;28;20204;-64
2022/11/27 01:33:34;;;;;;;1.03;1.03;;;;;;;6.51;88.62;100548.03;5072298;28;20188;-64
2022/11/27 01:36:03;;;;;;;0.70;0.70;;;;;;;6.49;88.81;100554.81;5072114;28;20241;-65
2022/11/27 01:38:31;;;;;;;0.73;0.73;;;;;;;6.45;88.95;100545.44;5072399;28;20299;-64
2022/11/27 01:40:59;;;;;;;0.60;0.60;;;;;;;6.45;88.89;100546.31;5071633;28;20265;-64
2022/11/27 01:43:40;;;;;;;0.90;0.90;;;;;;;6.25;88.79;100515.66;5071985;28;20581;-64
2022/11/27 01:46:20;;;;;;;0.80;0.80;;;;;;;6.45;89.23;100561.59;5071516;28;20295;-64
2022/11/27 01:48:47;;;;;;;0.80;0.80;;;;;;;6.45;88.91;100553.09;5071773;28;20198;-64
2022/11/27 01:51:16;;;;;;;0.67;0.67;;;;;;;6.47;88.88;100556.50;5071834;28;20704;-64
2022/11/27 01:53:43;;;;;;;0.60;0.60;;;;;;;6.41;89.19;100541.19;5072138;28;20616;-64
2022/11/27 01:56:10;;;;;;;0.50;0.50;;;;;;;6.49;89.11;100557.38;5071867;28;20203;-64
2022/11/27 01:58:38;;;;;;;0.77;0.77;;;;;;;6.52;88.68;100552.28;5070520;28;20203;-64
2022/11/27 02:01:06;;;;;;;0.60;0.60;;;;;;;6.56;88.83;100554.00;5071927;28;20203;-65
2022/11/27 02:03:34;;;;;;;0.80;0.80;;;;;;;6.57;88.38;100550.59;5071763;28;20267;-64
2022/11/27 02:06:02;;;;;;;1.00;1.00;;;;;;;6.57;87.96;100545.50;5072104;28;20202;-64
2022/11/27 02:08:28;;;;;;;0.70;0.70;;;;;;;6.58;88.14;100539.56;5071524;28;20218;-64
2022/11/27 02:11:03;;;;;;;0.73;0.73;;;;;;;6.54;88.09;100540.41;5071787;28;20193;-64
2022/11/27 02:13:33;;;;;;;0.57;0.57;;;;;;;6.53;87.90;100548.88;5071128;28;20268;-64
2022/11/27 02:16:09;;;;;;;1.03;1.03;;;;;;;6.53;88.55;100544.63;5071984;28;20663;-64
2022/11/27 02:18:43;;;;;;;0.70;0.70;;;;;;;6.40;88.00;100516.56;5071382;28;20196;-64
2022/11/27 02:21:18;;;;;;;0.60;0.60;;;;;;;6.53;88.02;100543.78;5069344;28;20241;-64
2022/11/27 02:24:01;;;;;;;0.50;0.50;;;;;;;6.48;87.98;100541.22;5071255;28;20211;-64
2022/11/27 02:26:50;;;;;;;0.70;0.70;;;;;;;6.43;87.70;100542.06;5071621;28;20204;-64
2022/11/27 02:29:22;;;;;;;0.87;0.87;;;;;;;6.39;88.26;100550.53;5069158;28;20204;-64
2022/11/27 02:31:56;;;;;;;0.50;0.50;;;;;;;6.38;88.58;100541.16;5071553;28;20249;-65
2022/11/27 02:34:27;;;;;;;0.97;0.97;;;;;;;6.34;89.15;100551.34;5071794;28;20266;-64
2022/11/27 02:37:01;;;;;;;0.80;0.80;;;;;;;6.23;89.15;100535.16;5071768;28;20203;-64
2022/11/27 02:39:35;;;;;;;1.73;1.63;;;;;;;6.28;89.12;100547.91;5071255;28;20713;-64
2022/11/27 02:42:07;;;;;;;1.00;1.00;;;;;;;6.25;89.24;100540.25;5071550;28;20271;-65
2022/11/27 02:44:41;;;;;;;0.60;0.60;;;;;;;5.93;89.51;100509.53;5070161;28;20216;-64
2022/11/27 02:47:08;;;;;;;0.83;0.83;;;;;;;6.19;90.11;100553.81;5070525;28;20211;-64
2022/11/27 02:49:36;;;;;;;0.50;0.50;;;;;;;6.22;89.75;100556.38;5070368;28;20199;-64
2022/11/27 02:52:04;;;;;;;0.70;0.70;;;;;;;6.21;89.66;100557.22;5070961;28;20730;-64
2022/11/27 02:54:32;;;;;;;0.80;0.80;;;;;;;6.25;89.35;100558.94;5071355;28;20192;-64
2022/11/27 02:57:02;;;;;;;0.70;0.70;;;;;;;6.28;89.23;100553.84;5069732;28;20203;-64
2022/11/27 02:59:32;;;;;;;0.60;0.60;;;;;;;6.27;89.69;100556.38;5071046;28;20680;-64
2022/11/27 03:02:06;;;;;;;0.73;0.73;;;;;;;6.23;89.75;100558.09;5071129;28;20287;-64
2022/11/27 03:04:39;;;;;;;0.90;0.90;;;;;;;6.24;89.66;100562.31;5071291;28;20265;-64
2022/11/27 03:07:12;;;;;;;1.00;1.00;;;;;;;6.27;89.84;100557.25;5071144;28;20196;-64
2022/11/27 03:09:44;;;;;;;0.87;0.87;;;;;;;6.24;89.98;100554.69;5071067;28;20196;-64
2022/11/27 03:12:13;;;;;;;0.77;0.77;;;;;;;6.23;89.47;100555.53;5070551;28;20191;-65
2022/11/27 03:14:42;;;;;;;0.87;0.87;;;;;;;6.27;89.58;100561.47;5071121;28;20203;-64
2022/11/27 03:17:22;;;;;;;2.10;2.00;;;;;;;6.33;89.34;100569.19;5070951;28;20195;-64
2022/11/27 03:19:53;;;;;;;1.17;1.17;;;;;;;6.32;89.36;100570.88;5071347;28;20196;-64
2022/11/27 03:22:20;;;;;;;0.80;0.80;;;;;;;6.26;89.35;100555.56;5070936;28;20199;-65
2022/11/27 03:24:48;;;;;;;0.70;0.70;;;;;;;6.38;88.98;100562.41;5071124;28;20215;-64
2022/11/27 03:27:21;;;;;;;0.60;0.60;;;;;;;6.40;88.66;100565.78;5070673;28;20211;-64
2022/11/27 03:29:51;;;;;;;0.70;0.70;;;;;;;6.43;88.40;100567.53;5070836;28;20668;-64
2022/11/27 03:32:20;;;;;;;0.70;0.70;;;;;;;6.44;88.67;100559.88;5070688;28;20731;-64
2022/11/27 03:34:47;;;;;;;0.70;0.70;;;;;;;6.46;88.18;100562.44;5070279;28;20200;-64
2022/11/27 03:37:15;;;;;;;0.60;0.60;;;;;;;6.47;88.40;100559.03;5070747;28;20687;-65
2022/11/27 03:39:43;;;;;;;0.80;0.80;;;;;;;6.47;87.91;100569.22;5070823;28;20196;-64
2022/11/27 03:42:18;;;;;;;0.57;0.57;;;;;;;6.50;88.17;100574.34;5068143;28;20215;-64
2022/11/27 03:44:53;;;;;;;0.70;0.70;;;;;;;6.52;87.95;100568.44;5070799;28;20219;-65
2022/11/27 03:47:35;;;;;;;0.60;0.60;;;;;;;6.48;87.67;100566.69;5070333;28;20613;-64
2022/11/27 03:50:17;;;;;;;0.83;0.83;;;;;;;6.45;88.21;100560.72;5071039;28;20200;-64
2022/11/27 03:52:52;;;;;;;0.60;0.60;;;;;;;6.41;88.36;100564.97;5070675;28;20192;-64
2022/11/27 03:55:28;;;;;;;0.60;0.60;;;;;;;6.38;88.21;100569.19;5071008;28;20567;-63
2022/11/27 03:58:00;;;;;;;0.60;0.60;;;;;;;6.16;88.43;100535.97;5067918;28;20196;-64
2022/11/27 04:00:30;;;;;;;0.80;0.80;;;;;;;6.31;89.03;100556.41;5070554;28;20188;-64
2022/11/27 04:02:58;;;;;;;0.60;0.60;;;;;;;6.33;88.92;100552.19;5070534;28;20196;-64
2022/11/27 04:05:25;;;;;;;1.00;1.00;;;;;;;6.35;88.34;100549.66;5070503;28;20215;-65
2022/11/27 04:07:52;;;;;;;0.57;0.57;;;;;;;6.34;88.74;100553.88;5070592;28;20721;-64
2022/11/27 04:10:19;;;;;;;0.63;0.63;;;;;;;6.34;88.22;100548.78;5074183;28;20675;-64
2022/11/27 04:12:45;;;;;;;0.60;0.60;;;;;;;6.34;88.66;100548.78;5073099;28;20246;-64
2022/11/27 04:15:13;;;;;;;0.60;0.60;;;;;;;6.30;89.11;100549.63;5074138;28;20192;-64
2022/11/27 04:17:40;;;;;;;0.70;0.70;;;;;;;6.23;89.34;100539.41;5072804;28;20253;-64
2022/11/27 04:20:10;;;;;;;0.63;0.63;;;;;;;6.06;89.15;100533.34;5073495;28;20196;-64
2022/11/27 04:22:37;;;;;;;0.70;0.70;;;;;;;6.03;89.90;100554.56;5073645;28;20196;-64
2022/11/27 04:25:05;;;;;;;1.37;1.37;;;;;;;5.90;91.04;100552.78;5074256;28;20336;-64
2022/11/27 04:27:31;;;;;;;1.33;1.33;;;;;;;5.80;91.56;100558.59;5074113;28;20200;-64
2022/11/27 04:29:58;;;;;;;1.00;1.00;;;;;;;5.69;92.32;100552.56;5073522;28;20656;-64
2022/11/27 04:32:25;;;;;;;0.80;0.80;;;;;;;5.53;92.66;100549.03;5073426;28;20199;-64
2022/11/27 04:34:52;;;;;;;1.00;1.00;;;;;;;5.58;92.92;100549.09;5072410;28;20694;-64
2022/11/27 04:37:20;;;;;;;1.00;1.00;;;;;;;5.57;93.23;100549.94;5073927;28;20733;-64
2022/11/27 04:39:47;;;;;;;0.60;0.60;;;;;;;5.59;93.33;100559.25;5073720;28;20626;-64
2022/11/27 04:42:13;;;;;;;0.70;0.70;;;;;;;5.60;93.32;100544.88;5073999;28;20219;-64
2022/11/27 04:44:40;;;;;;;0.60;0.60;;;;;;;5.59;92.94;100555.91;5073429;28;20208;-65
2022/11/27 04:47:07;;;;;;;0.63;0.63;;;;;;;5.56;93.08;100553.28;5073754;28;20204;-64
2022/11/27 04:49:34;;;;;;;0.70;0.70;;;;;;;5.47;92.89;100545.59;5074067;28;20199;-63
2022/11/27 04:52:00;;;;;;;0.60;0.60;;;;;;;5.47;93.48;100563.41;5072932;28;20581;-64
2022/11/27 04:54:28;;;;;;;0.87;0.87;;;;;;;5.47;93.99;100559.16;5073794;28;20664;-64
2022/11/27 04:56:55;;;;;;;0.70;0.70;;;;;;;5.46;94.21;100559.19;5073056;28;20253;-64
2022/11/27 04:59:22;;;;;;;0.80;0.80;;;;;;;5.47;94.25;100559.16;5073088;28;20664;-64
2022/11/27 05:01:49;;;;;;;0.87;0.87;;;;;;;5.40;94.09;100566.72;5066969;28;20204;-64
2022/11/27 05:04:22;;;;;;;0.90;0.90;;;;;;;5.32;94.02;100564.13;5072998;28;20206;-64
2022/11/27 05:06:49;;;;;;;1.33;1.33;;;;;;;5.35;94.39;100558.22;5073400;28;20738;-63
2022/11/27 05:09:17;;;;;;;0.80;0.80;;;;;;;5.32;94.67;100570.91;5071760;28;20203;-64
2022/11/27 05:11:45;;;;;;;0.80;0.80;;;;;;;5.20;94.88;100564.84;5072861;28;20660;-64
2022/11/27 05:14:18;;;;;;;1.10;1.10;;;;;;;5.25;95.45;100558.13;5072350;28;20211;-64
2022/11/27 05:16:47;;;;;;;0.70;0.70;;;;;;;5.30;95.37;100571.72;5072954;28;20200;-64
2022/11/27 05:19:16;;;;;;;0.73;0.73;;;;;;;5.32;95.07;100570.91;5072170;28;20200;-64
2022/11/27 05:21:43;;;;;;;0.60;0.60;;;;;;;5.33;94.65;100585.31;5069930;28;20618;-64
2022/11/27 05:24:11;;;;;;;0.70;0.70;;;;;;;5.27;94.54;100575.91;5072838;28;20203;-65
2022/11/27 05:26:39;;;;;;;0.70;0.70;;;;;;;5.23;94.53;100575.03;5072750;28;20691;-64
2022/11/27 05:29:08;;;;;;;0.63;0.63;;;;;;;5.23;94.95;100585.19;5070363;28;20265;-64
2022/11/27 05:31:36;;;;;;;0.67;0.67;;;;;;;5.20;95.29;100589.44;5071863;28;20261;-64
2022/11/27 05:34:05;;;;;;;1.33;1.33;;;;;;;5.19;95.55;100593.66;5069143;28;20204;-64
2022/11/27 05:36:33;;;;;;;1.10;1.10;;;;;;;5.24;95.35;100586.91;5069469;28;20235;-64
2022/11/27 05:39:00;;;;;;;1.33;1.33;;;;;;;5.27;95.22;100586.94;5071246;28;20204;-64
2022/11/27 05:41:27;;;;;;;0.60;0.60;;;;;;;5.20;95.30;100579.25;5071980;28;20211;-64
2022/11/27 05:43:54;;;;;;;0.60;0.60;;;;;;;5.29;95.16;100580.22;5069796;28;20230;-64
2022/11/27 05:46:23;;;;;;;0.70;0.70;;;;;;;5.32;95.26;100581.06;5072193;28;20241;-64
2022/11/27 05:48:50;;;;;;;0.57;0.57;;;;;;;5.30;95.65;100576.81;5072439;28;20266;-64
2022/11/27 05:51:17;;;;;;;0.70;0.70;;;;;;;5.39;95.19;100600.63;5071814;28;20219;-65
2022/11/27 05:53:44;;;;;;;0.77;0.77;;;;;;;5.41;95.63;100601.50;5072130;28;20208;-64
2022/11/27 05:56:13;;;;;;;1.70;1.70;;;;;;;5.33;95.41;100593.81;5072206;28;20195;-64
2022/11/27 05:58:44;;;;;;;0.60;0.60;;;;;;;5.39;96.24;100603.19;5071986;28;20600;-64
2022/11/27 06:01:13;;;;;;;0.60;0.60;;;;;;;5.37;96.31;100602.28;5072314;28;20200;-64
2022/11/27 06:03:41;;;;;;;0.80;0.80;;;;;;;5.42;96.13;100605.75;5072344;28;20575;-64
2022/11/27 06:06:11;;;;;;;0.70;0.70;;;;;;;5.42;95.91;100606.59;5071767;28;20208;-64
2022/11/27 06:08:38;;;;;;;0.60;0.60;;;;;;;5.46;96.50;100610.03;5071586;28;20659;-64
2022/11/27 06:11:08;;;;;;;0.50;0.50;;;;;;;5.51;96.44;100605.84;5071571;28;20193;-64
2022/11/27 06:13:35;;;;;;;1.30;1.27;;;;;;;5.58;96.04;100612.69;5070223;28;20199;-64
2022/11/27 06:16:05;;;;;;;0.70;0.70;;;;;;;5.61;95.96;100610.16;5065478;28;20215;-64
2022/11/27 06:18:32;;;;;;;0.90;0.90;;;;;;;5.65;96.43;100615.31;5068818;28;20270;-64
2022/11/27 06:21:00;;;;;;;1.50;1.50;;;;;;;5.68;96.42;100614.47;5071702;28;20211;-64
2022/11/27 06:23:27;;;;;;;0.70;0.70;;;;;;;5.61;96.41;100608.47;5071613;28;20200;-64
2022/11/27 06:25:55;;;;;;;0.60;0.60;;;;;;;5.64;96.67;100615.28;5070436;28;20276;-65
2022/11/27 06:28:22;;;;;;;0.70;0.70;;;;;;;5.65;97.07;100614.44;5071175;28;20680;-64
2022/11/27 06:30:49;;;;;;;0.60;0.60;;;;;;;5.70;97.30;100612.78;5070714;28;20200;-65
2022/11/27 06:33:16;;;;;;;0.80;0.80;;;;;;;5.68;96.98;100604.31;5071706;28;20253;-64
2022/11/27 06:35:42;;;;;;;0.80;0.80;;;;;;;5.71;97.06;100604.31;5071684;28;20215;-64
2022/11/27 06:38:11;;;;;;;0.60;0.60;;;;;;;5.76;96.82;100602.66;5071200;28;20265;-64
2022/11/27 06:40:37;;;;;;;0.60;0.60;;;;;;;5.82;97.46;100605.25;5071147;28;20196;-65
2022/11/27 06:43:04;;;;;;;0.90;0.90;;;;;;;5.83;96.46;100606.97;5071110;28;20204;-64
2022/11/27 06:45:31;;;;;;;0.70;0.70;;;;;;;5.87;96.89;100612.97;5071415;28;20290;-64
2022/11/27 06:47:58;;;;;;;0.70;0.70;;;;;;;5.92;96.98;100614.69;5071210;28;20665;-64
2022/11/27 06:50:25;;;;;;;1.00;1.00;;;;;;;5.96;97.13;100611.34;5069216;28;20200;-64
2022/11/27 06:52:52;;;;;;;0.70;0.70;;;;;;;6.05;96.01;100615.66;5071019;28;20238;-64
2022/11/27 06:55:20;;;;;;;0.90;0.90;;;;;;;6.06;95.58;100610.56;5070073;28;20200;-64
2022/11/27 06:57:49;;;;;;;2.07;2.07;;;;;;;6.10;95.73;100619.94;5067823;28;20204;-64
2022/11/27 07:00:17;;;;;;;0.73;0.73;;;;;;;6.15;95.08;100617.41;5067636;28;20587;-64
2022/11/27 07:02:44;;;;;;;0.80;0.80;;;;;;;6.13;94.29;100606.38;5069695;28;20230;-64
2022/11/27 07:05:11;;;;;;;0.80;0.80;;;;;;;6.15;94.47;100608.09;5070304;28;20368;-64
2022/11/27 07:07:38;;;;;;;0.77;0.77;;;;;;;6.16;95.47;100614.03;5065695;28;20230;-65
2022/11/27 07:10:06;;;;;;;0.50;0.50;;;;;;;6.15;95.94;100613.19;5067853;28;20200;-65
2022/11/27 07:12:34;;;;;;;0.53;0.53;;;;;;;6.12;94.76;100609.75;5070710;28;20202;-64
2022/11/27 07:15:01;;;;;;;1.00;1.00;;;;;;;6.14;94.56;100605.56;5069316;28;20619;-64
2022/11/27 07:17:28;;;;;;;2.00;1.90;;;;;;;6.05;95.65;100598.69;5069905;28;20212;-64
2022/11/27 07:19:54;;;;;;;0.80;0.80;;;;;;;6.15;95.87;100613.19;5070500;28;20257;-64
2022/11/27 07:22:21;;;;;;;0.77;0.77;;;;;;;6.20;95.52;100616.59;5070324;28;20204;-64
2022/11/27 07:24:48;;;;;;;0.63;0.63;;;;;;;6.25;96.55;100614.97;5068203;28;20286;-64
2022/11/27 07:27:15;;;;;;;0.93;0.93;;;;;;;6.30;95.85;100633.66;5070471;28;20200;-64
2022/11/27 07:29:43;;;;;;;0.63;0.63;;;;;;;6.32;95.67;100621.81;5070429;28;20196;-64
2022/11/27 07:32:10;;;;;;;0.90;0.90;;;;;;;6.36;94.94;100625.22;5067153;28;20208;-64
2022/11/27 07:34:36;;;;;;;1.00;1.00;;;;;;;6.44;95.16;100617.59;5070529;28;20652;-67
2022/11/27 07:37:03;;;;;;;0.63;0.63;;;;;;;6.45;94.64;100619.31;5070468;28;20718;-66
2022/11/27 07:39:30;;;;;;;0.70;0.70;;;;;;;6.45;95.00;100612.53;5068517;28;20208;-63
2022/11/27 07:41:57;;;;;;;0.80;0.80;;;;;;;6.55;95.34;100618.53;5063841;28;20480;-63
2022/11/27 07:44:23;;;;;;;1.43;1.43;;;;;;;6.63;95.15;100609.22;5073293;28;20268;-62
2022/11/27 07:46:52;;;;;;;0.80;0.80;;;;;;;6.65;94.83;100610.94;5074747;28;20215;-63
2022/11/27 07:49:18;;;;;;;0.70;0.70;;;;;;;6.73;94.10;100616.06;5074805;28;20204;-63
2022/11/27 07:51:45;;;;;;;0.60;0.60;;;;;;;6.83;93.83;100615.28;5074360;28;20228;-63
2022/11/27 07:54:12;;;;;;;0.60;0.60;;;;;;;6.90;93.47;100619.56;5074945;28;20200;-62
2022/11/27 07:56:39;;;;;;;0.73;0.73;;;;;;;6.93;94.40;100617.00;5074968;28;20698;-63
2022/11/27 07:59:05;;;;;;;0.83;0.83;;;;;;;6.98;93.61;100620.41;5074682;28;20192;-62
2022/11/27 08:01:32;;;;;;;0.70;0.70;;;;;;;7.07;93.38;100620.47;5074261;28;20549;-62
2022/11/27 08:04:00;;;;;;;0.80;0.80;;;;;;;7.16;93.60;100625.59;5071410;28;20203;-63
2022/11/27 08:06:27;;;;;;;0.80;0.80;;;;;;;7.04;91.89;100620.47;5074294;28;20212;-63
2022/11/27 08:08:55;;;;;;;0.70;0.70;;;;;;;7.10;92.23;100619.63;5074369;28;20200;-63
2022/11/27 08:11:23;;;;;;;0.70;0.70;;;;;;;7.05;92.49;100619.59;5074285;28;20200;-63
2022/11/27 08:13:51;;;;;;;0.70;0.70;;;;;;;7.04;93.34;100612.81;5073765;28;20811;-62
2022/11/27 08:16:17;;;;;;;0.70;0.70;;;;;;;7.18;94.16;100623.91;5074598;28;20207;-63
2022/11/27 08:18:44;;;;;;;0.70;0.70;;;;;;;7.25;93.35;100615.41;5074164;28;20478;-63
2022/11/27 08:21:13;;;;;;;1.10;1.10;;;;;;;7.27;93.34;100613.72;5074381;28;20208;-63
2022/11/27 08:23:40;;;;;;;0.77;0.77;;;;;;;7.32;92.15;100611.19;5074353;28;20196;-63
2022/11/27 08:26:07;;;;;;;4.00;1.90;;;;;;;7.26;92.37;100583.97;5074197;28;20208;-63
2022/11/27 08:28:34;;;;;;;0.57;0.57;;;;;;;7.44;92.16;100598.44;5074105;28;20577;-63
2022/11/27 08:31:03;;;;;;;0.60;0.60;;;;;;;7.59;92.24;100607.84;5074139;28;20204;-63
2022/11/27 08:33:30;;;;;;;0.80;0.80;;;;;;;7.69;91.47;100612.09;5069877;28;20215;-63
2022/11/27 08:35:57;;;;;;;0.63;0.63;;;;;;;7.75;90.07;100596.78;5074148;28;20196;-63
2022/11/27 08:38:25;;;;;;;0.60;0.60;;;;;;;7.83;87.91;100605.28;5074037;28;20204;-62
2022/11/27 08:40:56;;;;;;;0.70;0.70;;;;;;;7.66;87.69;100581.44;5073887;28;20200;-62
2022/11/27 08:43:24;;;;;;;1.17;1.07;;;;;;;7.87;87.88;100596.78;5073987;28;20219;-63
2022/11/27 08:45:51;;;;;;;0.60;0.60;;;;;;;7.82;88.90;100568.69;5069888;28;20216;-63
2022/11/27 08:48:19;;;;;;;0.80;0.80;;;;;;;8.14;90.19;100604.41;5071231;28;20197;-63
2022/11/27 08:50:46;;;;;;;0.60;0.60;;;;;;;8.14;88.66;100606.13;5073510;28;20289;-62
2022/11/27 08:53:13;;;;;;;0.70;0.70;;;;;;;8.17;87.89;100607.00;5067029;28;20280;-63
2022/11/27 08:55:42;;;;;;;0.67;0.67;;;;;;;8.25;89.43;100610.38;5065558;28;20208;-62
2022/11/27 08:58:09;;;;;;;0.70;0.70;;;;;;;8.29;87.58;100607.00;5073523;28;20626;-62
2022/11/27 09:00:37;;;;;;;0.77;0.77;;;;;;;8.18;85.57;100603.56;5073209;28;20204;-63
2022/11/27 09:03:04;;;;;;;1.73;1.73;;;;;;;8.20;85.21;100594.22;5073613;28;20196;-63
2022/11/27 09:05:31;;;;;;;2.00;0.93;;;;;;;8.28;85.39;100600.19;5073500;28;20224;-63
2022/11/27 09:08:01;;;;;;;0.67;0.67;;;;;;;8.39;85.50;100598.47;5070122;28;20242;-63
2022/11/27 09:10:28;;;;;;;0.60;0.60;;;;;;;8.49;85.39;100598.44;5073057;28;20196;-62
2022/11/27 09:12:58;;;;;;;0.80;0.80;;;;;;;8.56;84.15;100595.03;5073228;28;20207;-63
2022/11/27 09:15:24;;;;;;;0.87;0.87;;;;;;;8.50;83.59;100587.38;5073348;28;20250;-62
2022/11/27 09:17:51;;;;;;;0.67;0.67;;;;;;;8.54;83.03;100591.59;5072977;28;20204;-63
2022/11/27 09:20:19;;;;;;;0.60;0.60;;;;;;;8.58;83.17;100589.03;5070668;28;20204;-63
2022/11/27 09:22:45;;;;;;;0.80;0.80;;;;;;;8.71;82.55;100579.63;5072797;28;20733;-63
2022/11/27 09:25:12;;;;;;;0.50;0.50;;;;;;;8.79;82.98;100582.97;5069723;28;20306;-64
2022/11/27 09:27:39;;;;;;;0.70;0.70;;;;;;;8.69;82.23;100555.78;5070255;28;20230;-62
2022/11/27 09:30:09;;;;;;;6.17;1.10;;;;;;;8.98;82.70;100564.16;5069607;28;20204;-63
2022/11/27 09:32:36;;;;;;;1.33;1.33;;;;;;;9.12;81.06;100564.91;5068795;28;20626;-63
2022/11/27 09:35:03;;;;;;;0.70;0.70;;;;;;;9.13;80.53;100568.34;5069056;28;20192;-62
2022/11/27 09:37:30;;;;;;;0.60;0.60;;;;;;;9.14;80.12;100559.81;5072129;28;20192;-63
2022/11/27 09:39:58;;;;;;;0.70;0.70;;;;;;;9.11;80.24;100534.25;5071527;28;20251;-64
2022/11/27 09:42:39;;;;;;;0.60;0.60;;;;;;;9.07;80.28;100538.53;5070727;28;20725;-63
2022/11/27 09:45:15;;;;;;;0.90;0.90;;;;;;;9.18;80.13;100541.84;5068052;28;20659;-62
2022/11/27 09:47:47;;;;;;;1.43;1.43;;;;;;;9.35;80.63;100544.31;5070522;28;20781;-63
2022/11/27 09:50:19;;;;;;;0.67;0.67;;;;;;;9.36;78.93;100526.41;5069622;28;20710;-62
2022/11/27 09:52:48;;;;;;;0.73;0.73;;;;;;;9.37;79.22;100533.19;5067541;28;20232;-62
2022/11/27 09:55:21;;;;;;;0.70;0.70;;;;;;;9.42;79.20;100526.34;5070379;28;20265;-62
2022/11/27 09:57:57;;;;;;;0.60;0.60;;;;;;;9.37;77.58;100509.34;5072165;28;20568;-62
2022/11/27 10:00:25;;;;;;;0.87;0.87;;;;;;;9.49;78.30;100522.88;5070506;28;20195;-63
2022/11/27 10:02:53;;;;;;;1.03;1.03;;;;;;;9.58;78.44;100518.53;5065255;28;20230;-63
2022/11/27 10:05:23;;;;;;;0.80;0.80;;;;;;;9.64;77.30;100510.81;5069480;28;20200;-63
2022/11/27 10:08:12;;;;;;;1.00;1.00;;;;;;;9.61;78.21;100518.50;5071448;28;20208;-63
2022/11/27 10:10:45;;;;;;;0.83;0.83;;;;;;;9.67;76.74;100510.78;5069548;28;20207;-63
2022/11/27 10:13:31;;;;;;;0.67;0.67;;;;;;;9.57;75.21;100509.16;5069840;28;20204;-63
2022/11/27 10:16:08;;;;;;;0.80;0.80;;;;;;;9.69;76.03;100504.81;5069079;28;20668;-62
2022/11/27 10:18:40;;;;;;;0.77;0.77;;;;;;;9.67;75.97;100474.94;5067595;28;20549;-63
2022/11/27 10:21:13;;;;;;;0.93;0.93;;;;;;;9.84;75.76;100498.69;5070841;28;20219;-63
2022/11/27 10:23:49;;;;;;;0.90;0.90;;;;;;;9.98;75.33;100496.84;5069970;28;20667;-62
2022/11/27 10:26:19;;;;;;;0.70;0.70;;;;;;;10.05;75.95;100498.44;5071448;28;20230;-63
2022/11/27 10:28:54;;;;;;;0.60;0.60;;;;;;;10.16;74.83;100495.81;5071464;28;20200;-62
2022/11/27 10:31:32;;;;;;;0.67;0.67;;;;;;;10.26;74.35;100493.13;5071432;28;20622;-62
2022/11/27 10:34:02;;;;;;;0.90;0.90;;;;;;;10.24;74.35;100487.16;5067302;28;20200;-63
2022/11/27 10:36:34;;;;;;;1.70;1.60;;;;;;;10.23;72.21;100482.91;5071266;28;20325;-63
2022/11/27 10:39:02;;;;;;;0.60;0.60;;;;;;;10.19;72.54;100478.69;5071036;28;20192;-63
2022/11/27 10:41:34;;;;;;;0.90;0.90;;;;;;;10.00;72.14;100472.03;5068733;28;20921;-62
2022/11/27 10:44:22;;;;;;;0.67;0.67;;;;;;;10.05;73.96;100472.00;5069178;28;20345;-63
2022/11/27 10:46:54;;;;;;;0.53;0.53;;;;;;;9.97;71.91;100457.56;5067090;28;20691;-62
2022/11/27 10:49:21;;;;;;;0.53;0.53;;;;;;;10.13;72.19;100471.03;5068253;28;20622;-63
2022/11/27 10:51:47;;;;;;;0.80;0.80;;;;;;;10.18;72.62;100463.34;5069127;28;20230;-63
2022/11/27 10:54:23;;;;;;;0.50;0.50;;;;;;;10.17;72.08;100467.63;5070317;28;20196;-62
2022/11/27 10:57:09;;;;;;;0.50;0.50;;;;;;;10.25;72.81;100458.09;5070352;28;20269;-63
2022/11/27 10:59:43;;;;;;;0.87;0.87;;;;;;;10.37;71.69;100450.25;5068535;28;20204;-62
2022/11/27 11:05:20;;;;;;;0.70;0.70;;;;;;;10.42;70.86;100438.25;5159692;27;21154;-63
2022/11/27 11:08:00;;;;;;;0.60;0.60;;;;;;;10.42;69.91;100440.81;5158587;27;20737;-63
2022/11/27 11:10:31;;;;;;;0.70;0.70;;;;;;;10.44;70.10;100405.75;5159448;27;20661;-64
2022/11/27 11:13:14;;;;;;;0.80;0.80;;;;;;;10.62;71.42;100421.75;5155076;27;20205;-63
2022/11/27 11:15:52;;;;;;;0.60;0.60;;;;;;;10.71;70.27;100426.75;5153546;27;20724;-63
2022/11/27 11:18:20;;;;;;;0.50;0.50;;;;;;;10.68;68.25;100414.81;5159332;27;20725;-64
2022/11/27 11:20:51;;;;;;;0.50;0.50;;;;;;;10.79;69.74;100414.66;5160399;27;20192;-63
2022/11/27 11:23:24;;;;;;;1.13;1.13;;;;;;;10.78;69.60;100416.38;5161274;27;20265;-64
2022/11/27 11:25:54;;;;;;;0.50;0.50;;;;;;;10.73;69.47;100409.59;5155659;27;20664;-63
2022/11/27 11:28:21;;;;;;;1.10;1.10;;;;;;;10.80;69.13;100418.91;5160882;27;20194;-63
2022/11/27 11:30:59;;;;;;;0.43;0.43;;;;;;;10.87;69.42;100410.25;5155309;27;20204;-62
2022/11/27 11:33:28;;;;;;;0.60;0.60;;;;;;;10.88;68.81;100406.84;5155504;27;20273;-63
2022/11/27 11:36:08;;;;;;;0.50;0.50;;;;;;;10.82;67.09;100406.94;5155559;27;20201;-63
2022/11/27 11:38:36;;;;;;;0.60;0.60;;;;;;;10.77;68.17;100408.69;5156288;27;20200;-63
2022/11/27 11:41:06;;;;;;;0.60;0.60;;;;;;;10.80;67.05;100408.66;5152923;27;20725;-63
2022/11/27 11:43:34;;;;;;;0.50;0.50;;;;;;;10.82;66.73;100401.81;5169114;27;20654;-64